sensor_id;sensor_type;location;lat;lon;timestamp;temperature;humidity
54684;DHT22;40582;53.100;6.686;2023-11-19T00:01:10;10.20;99.90
54684;DHT22;40582;53.100;6.686;2023-11-19T00:03:36;10.20;99.90
54684;DHT22;40582;53.100;6.686;2023-11-19T00:06:02;10.20;99.90
54684;DHT22;40582;53.100;6.686;2023-11-19T00:08:29;10.30;99.90
54684;DHT22;40582;53.100;6.686;2023-11-19T00:10:55;10.30;99.90
54684;DHT22;40582;53.100;6.686;2023-11-19T00:13:21;10.40;99.90
54684;DHT22;40582;53.100;6.686;2023-11-19T00:15:46;10.40;99.90
54684;DHT22;40582;53.100;6.686;2023-11-19T00:18:13;10.40;99.90
54684;DHT22;40582;53.100;6.686;2023-11-19T00:20:39;10.40;99.90
54684;DHT22;40582;53.100;6.686;2023-11-19T00:23:05;10.50;99.90
54684;DHT22;40582;53.100;6.686;2023-11-19T00:25:31;10.50;99.90
54684;DHT22;40582;53.100;6.686;2023-11-19T00:27:57;10.50;99.90
54684;DHT22;40582;53.100;6.686;2023-11-19T00:30:22;10.50;99.90
54684;DHT22;40582;53.100;6.686;2023-11-19T00:32:48;10.60;99.90
54684;DHT22;40582;53.100;6.686;2023-11-19T00:35:14;10.60;99.90
54684;DHT22;40582;53.100;6.686;2023-11-19T00:37:41;10.60;99.90
54684;DHT22;40582;53.100;6.686;2023-11-19T00:40:08;10.70;99.90
54684;DHT22;40582;53.100;6.686;2023-11-19T00:42:35;10.70;99.90
54684;DHT22;40582;53.100;6.686;2023-11-19T00:45:01;10.70;99.90
54684;DHT22;40582;53.100;6.686;2023-11-19T00:47:27;10.70;99.90
54684;DHT22;40582;53.100;6.686;2023-11-19T00:49:53;10.80;99.90
54684;DHT22;40582;53.100;6.686;2023-11-19T00:52:19;10.80;99.90
54684;DHT22;40582;53.100;6.686;2023-11-19T00:54:45;10.80;99.90
54684;DHT22;40582;53.100;6.686;2023-11-19T00:57:11;10.90;99.90
54684;DHT22;40582;53.100;6.686;2023-11-19T00:59:37;11.00;99.90
54684;DHT22;40582;53.100;6.686;2023-11-19T01:02:03;11.00;99.90
54684;DHT22;40582;53.100;6.686;2023-11-19T01:04:34;11.00;99.90
54684;DHT22;40582;53.100;6.686;2023-11-19T01:07:02;11.10;99.90
54684;DHT22;40582;53.100;6.686;2023-11-19T01:09:29;11.00;99.90
54684;DHT22;40582;53.100;6.686;2023-11-19T01:11:57;11.00;99.90
54684;DHT22;40582;53.100;6.686;2023-11-19T01:14:23;11.00;99.90
54684;DHT22;40582;53.100;6.686;2023-11-19T01:16:49;11.10;99.90
54684;DHT22;40582;53.100;6.686;2023-11-19T01:19:14;11.10;99.90
54684;DHT22;40582;53.100;6.686;2023-11-19T01:21:40;11.10;99.90
54684;DHT22;40582;53.100;6.686;2023-11-19T01:24:06;11.10;99.90
54684;DHT22;40582;53.100;6.686;2023-11-19T01:26:35;11.10;99.90
54684;DHT22;40582;53.100;6.686;2023-11-19T01:29:00;11.10;99.90
54684;DHT22;40582;53.100;6.686;2023-11-19T01:31:26;11.20;99.90
54684;DHT22;40582;53.100;6.686;2023-11-19T01:33:52;11.20;99.90
54684;DHT22;40582;53.100;6.686;2023-11-19T01:36:18;11.20;99.90
54684;DHT22;40582;53.100;6.686;2023-11-19T01:38:43;11.20;99.90
54684;DHT22;40582;53.100;6.686;2023-11-19T01:41:10;11.20;99.90
54684;DHT22;40582;53.100;6.686;2023-11-19T01:43:37;11.20;99.90
54684;DHT22;40582;53.100;6.686;2023-11-19T01:46:05;11.20;99.90
54684;DHT22;40582;53.100;6.686;2023-11-19T01:48:34;11.20;99.90
54684;DHT22;40582;53.100;6.686;2023-11-19T01:51:05;11.20;99.90
54684;DHT22;40582;53.100;6.686;2023-11-19T01:53:32;11.20;99.90
54684;DHT22;40582;53.100;6.686;2023-11-19T01:55:58;11.20;99.90
54684;DHT22;40582;53.100;6.686;2023-11-19T01:58:24;11.10;99.90
54684;DHT22;40582;53.100;6.686;2023-11-19T02:00:50;11.10;99.90
54684;DHT22;40582;53.100;6.686;2023-11-19T02:03:16;11.20;99.90
54684;DHT22;40582;53.100;6.686;2023-11-19T02:05:42;11.10;99.90
54684;DHT22;40582;53.100;6.686;2023-11-19T02:08:08;11.10;99.90
54684;DHT22;40582;53.100;6.686;2023-11-19T02:10:34;11.10;99.90
54684;DHT22;40582;53.100;6.686;2023-11-19T02:13:01;11.00;99.90
54684;DHT22;40582;53.100;6.686;2023-11-19T02:15:28;11.00;99.90
54684;DHT22;40582;53.100;6.686;2023-11-19T02:17:53;11.00;99.90
54684;DHT22;40582;53.100;6.686;2023-11-19T02:20:20;10.90;99.90
54684;DHT22;40582;53.100;6.686;2023-11-19T02:22:46;10.90;99.90
54684;DHT22;40582;53.100;6.686;2023-11-19T02:25:25;10.90;99.90
54684;DHT22;40582;53.100;6.686;2023-11-19T02:28:03;10.90;99.90
54684;DHT22;40582;53.100;6.686;2023-11-19T02:30:30;11.00;99.90
54684;DHT22;40582;53.100;6.686;2023-11-19T02:33:00;11.00;99.90
54684;DHT22;40582;53.100;6.686;2023-11-19T02:35:31;11.00;99.90
54684;DHT22;40582;53.100;6.686;2023-11-19T02:37:58;11.00;99.90
54684;DHT22;40582;53.100;6.686;2023-11-19T02:40:25;11.00;99.90
54684;DHT22;40582;53.100;6.686;2023-11-19T02:42:52;11.10;99.90
54684;DHT22;40582;53.100;6.686;2023-11-19T02:45:18;11.10;99.90
54684;DHT22;40582;53.100;6.686;2023-11-19T02:47:44;11.10;99.90
54684;DHT22;40582;53.100;6.686;2023-11-19T02:50:12;11.10;99.90
54684;DHT22;40582;53.100;6.686;2023-11-19T02:52:44;11.10;99.90
54684;DHT22;40582;53.100;6.686;2023-11-19T02:55:12;11.10;99.90
54684;DHT22;40582;53.100;6.686;2023-11-19T02:57:41;11.10;99.90
54684;DHT22;40582;53.100;6.686;2023-11-19T03:00:23;11.00;99.90
54684;DHT22;40582;53.100;6.686;2023-11-19T03:02:51;11.10;99.90
54684;DHT22;40582;53.100;6.686;2023-11-19T03:05:30;11.10;99.90
54684;DHT22;40582;53.100;6.686;2023-11-19T03:07:56;11.10;99.90
54684;DHT22;40582;53.100;6.686;2023-11-19T03:10:22;11.10;99.90
54684;DHT22;40582;53.100;6.686;2023-11-19T03:12:49;11.10;99.90
54684;DHT22;40582;53.100;6.686;2023-11-19T03:15:15;11.10;99.90
54684;DHT22;40582;53.100;6.686;2023-11-19T03:17:44;11.10;99.90
54684;DHT22;40582;53.100;6.686;2023-11-19T03:20:11;11.10;99.90
54684;DHT22;40582;53.100;6.686;2023-11-19T03:22:40;11.00;99.90
54684;DHT22;40582;53.100;6.686;2023-11-19T03:25:12;11.00;99.90
54684;DHT22;40582;53.100;6.686;2023-11-19T03:27:39;11.00;99.90
54684;DHT22;40582;53.100;6.686;2023-11-19T03:30:05;11.10;99.90
54684;DHT22;40582;53.100;6.686;2023-11-19T03:32:32;11.10;99.90
54684;DHT22;40582;53.100;6.686;2023-11-19T03:34:58;11.10;99.90
54684;DHT22;40582;53.100;6.686;2023-11-19T03:37:28;11.10;99.90
54684;DHT22;40582;53.100;6.686;2023-11-19T03:39:54;11.10;99.90
54684;DHT22;40582;53.100;6.686;2023-11-19T03:42:20;11.10;99.90
54684;DHT22;40582;53.100;6.686;2023-11-19T03:44:46;11.00;99.90
54684;DHT22;40582;53.100;6.686;2023-11-19T03:47:12;11.00;99.90
54684;DHT22;40582;53.100;6.686;2023-11-19T03:49:38;11.10;99.90
54684;DHT22;40582;53.100;6.686;2023-11-19T03:52:05;11.00;99.90
54684;DHT22;40582;53.100;6.686;2023-11-19T03:54:30;11.10;99.90
54684;DHT22;40582;53.100;6.686;2023-11-19T03:56:58;11.10;99.90
54684;DHT22;40582;53.100;6.686;2023-11-19T03:59:25;11.10;99.90
54684;DHT22;40582;53.100;6.686;2023-11-19T04:01:51;11.10;99.90
54684;DHT22;40582;53.100;6.686;2023-11-19T04:04:19;11.10;99.90
54684;DHT22;40582;53.100;6.686;2023-11-19T04:06:44;11.10;99.90
54684;DHT22;40582;53.100;6.686;2023-11-19T04:09:10;11.10;99.90
54684;DHT22;40582;53.100;6.686;2023-11-19T04:11:36;11.10;99.90
54684;DHT22;40582;53.100;6.686;2023-11-19T04:14:01;11.10;99.90
54684;DHT22;40582;53.100;6.686;2023-11-19T04:16:27;11.00;99.90
54684;DHT22;40582;53.100;6.686;2023-11-19T04:18:54;11.00;99.90
54684;DHT22;40582;53.100;6.686;2023-11-19T04:21:20;10.90;99.90
54684;DHT22;40582;53.100;6.686;2023-11-19T04:23:45;10.80;99.90
54684;DHT22;40582;53.100;6.686;2023-11-19T04:26:11;10.80;99.90
54684;DHT22;40582;53.100;6.686;2023-11-19T04:28:37;10.80;99.90
54684;DHT22;40582;53.100;6.686;2023-11-19T04:31:02;10.80;99.90
54684;DHT22;40582;53.100;6.686;2023-11-19T04:33:28;10.80;99.90
54684;DHT22;40582;53.100;6.686;2023-11-19T04:35:54;10.80;99.90
54684;DHT22;40582;53.100;6.686;2023-11-19T04:38:20;10.70;99.90
54684;DHT22;40582;53.100;6.686;2023-11-19T04:40:45;10.70;99.90
54684;DHT22;40582;53.100;6.686;2023-11-19T04:43:11;10.60;99.90
54684;DHT22;40582;53.100;6.686;2023-11-19T04:45:38;10.60;99.90
54684;DHT22;40582;53.100;6.686;2023-11-19T04:48:05;10.60;99.90
54684;DHT22;40582;53.100;6.686;2023-11-19T04:50:31;10.60;99.90
54684;DHT22;40582;53.100;6.686;2023-11-19T04:52:56;10.60;99.90
54684;DHT22;40582;53.100;6.686;2023-11-19T04:55:22;10.60;99.90
54684;DHT22;40582;53.100;6.686;2023-11-19T04:57:48;10.60;99.90
54684;DHT22;40582;53.100;6.686;2023-11-19T05:00:14;10.60;99.90
54684;DHT22;40582;53.100;6.686;2023-11-19T05:02:39;10.50;99.90
54684;DHT22;40582;53.100;6.686;2023-11-19T05:05:05;10.60;99.90
54684;DHT22;40582;53.100;6.686;2023-11-19T05:07:31;10.60;99.90
54684;DHT22;40582;53.100;6.686;2023-11-19T05:09:57;10.50;99.90
54684;DHT22;40582;53.100;6.686;2023-11-19T05:12:23;10.50;99.90
54684;DHT22;40582;53.100;6.686;2023-11-19T05:14:49;10.50;99.90
54684;DHT22;40582;53.100;6.686;2023-11-19T05:17:19;10.60;99.90
54684;DHT22;40582;53.100;6.686;2023-11-19T05:19:45;10.60;99.90
54684;DHT22;40582;53.100;6.686;2023-11-19T05:22:10;10.60;99.90
54684;DHT22;40582;53.100;6.686;2023-11-19T05:24:36;10.60;99.90
54684;DHT22;40582;53.100;6.686;2023-11-19T05:27:02;10.70;99.90
54684;DHT22;40582;53.100;6.686;2023-11-19T05:29:28;10.70;99.90
54684;DHT22;40582;53.100;6.686;2023-11-19T05:31:54;10.70;99.90
54684;DHT22;40582;53.100;6.686;2023-11-19T05:34:22;10.70;99.90
54684;DHT22;40582;53.100;6.686;2023-11-19T05:36:47;10.70;99.90
54684;DHT22;40582;53.100;6.686;2023-11-19T05:39:13;10.60;99.90
54684;DHT22;40582;53.100;6.686;2023-11-19T05:41:39;10.60;99.90
54684;DHT22;40582;53.100;6.686;2023-11-19T05:44:04;10.60;99.90
54684;DHT22;40582;53.100;6.686;2023-11-19T05:46:30;10.60;99.90
54684;DHT22;40582;53.100;6.686;2023-11-19T05:48:56;10.60;99.90
54684;DHT22;40582;53.100;6.686;2023-11-19T05:51:21;10.60;99.90
54684;DHT22;40582;53.100;6.686;2023-11-19T05:53:49;10.60;99.90
54684;DHT22;40582;53.100;6.686;2023-11-19T05:56:15;10.60;99.90
54684;DHT22;40582;53.100;6.686;2023-11-19T05:58:47;10.60;99.90
54684;DHT22;40582;53.100;6.686;2023-11-19T06:01:13;10.60;99.90
54684;DHT22;40582;53.100;6.686;2023-11-19T06:03:39;10.60;99.90
54684;DHT22;40582;53.100;6.686;2023-11-19T06:06:05;10.60;99.90
54684;DHT22;40582;53.100;6.686;2023-11-19T06:08:31;10.50;99.90
54684;DHT22;40582;53.100;6.686;2023-11-19T06:10:57;10.60;99.90
54684;DHT22;40582;53.100;6.686;2023-11-19T06:13:23;10.60;99.90
54684;DHT22;40582;53.100;6.686;2023-11-19T06:15:50;10.50;99.90
54684;DHT22;40582;53.100;6.686;2023-11-19T06:18:16;10.50;99.90
54684;DHT22;40582;53.100;6.686;2023-11-19T06:20:45;10.50;99.90
54684;DHT22;40582;53.100;6.686;2023-11-19T06:23:10;10.40;99.90
54684;DHT22;40582;53.100;6.686;2023-11-19T06:25:36;10.30;99.90
54684;DHT22;40582;53.100;6.686;2023-11-19T06:28:02;10.30;99.90
54684;DHT22;40582;53.100;6.686;2023-11-19T06:30:28;10.30;99.90
54684;DHT22;40582;53.100;6.686;2023-11-19T06:32:55;10.30;99.90
54684;DHT22;40582;53.100;6.686;2023-11-19T06:35:21;10.30;99.90
54684;DHT22;40582;53.100;6.686;2023-11-19T06:37:47;10.30;99.90
54684;DHT22;40582;53.100;6.686;2023-11-19T06:40:12;10.40;99.90
54684;DHT22;40582;53.100;6.686;2023-11-19T06:42:38;10.40;99.90
54684;DHT22;40582;53.100;6.686;2023-11-19T06:45:05;10.40;99.90
54684;DHT22;40582;53.100;6.686;2023-11-19T06:47:31;10.40;99.90
54684;DHT22;40582;53.100;6.686;2023-11-19T06:49:58;10.40;99.90
54684;DHT22;40582;53.100;6.686;2023-11-19T06:52:24;10.40;99.90
54684;DHT22;40582;53.100;6.686;2023-11-19T06:54:50;10.40;99.90
54684;DHT22;40582;53.100;6.686;2023-11-19T06:57:16;10.40;99.90
54684;DHT22;40582;53.100;6.686;2023-11-19T06:59:42;10.40;99.90
54684;DHT22;40582;53.100;6.686;2023-11-19T07:02:08;10.40;99.90
54684;DHT22;40582;53.100;6.686;2023-11-19T07:04:34;10.40;99.90
54684;DHT22;40582;53.100;6.686;2023-11-19T07:07:00;10.40;99.90
54684;DHT22;40582;53.100;6.686;2023-11-19T07:09:26;10.40;99.90
54684;DHT22;40582;53.100;6.686;2023-11-19T07:11:52;10.40;99.90
54684;DHT22;40582;53.100;6.686;2023-11-19T07:14:18;10.40;99.90
54684;DHT22;40582;53.100;6.686;2023-11-19T07:16:44;10.40;99.90
54684;DHT22;40582;53.100;6.686;2023-11-19T07:19:11;10.40;99.90
54684;DHT22;40582;53.100;6.686;2023-11-19T07:21:41;10.50;99.90
54684;DHT22;40582;53.100;6.686;2023-11-19T07:24:09;10.50;99.90
54684;DHT22;40582;53.100;6.686;2023-11-19T07:26:36;10.50;99.90
54684;DHT22;40582;53.100;6.686;2023-11-19T07:29:05;10.50;99.90
54684;DHT22;40582;53.100;6.686;2023-11-19T07:31:33;10.40;99.90
54684;DHT22;40582;53.100;6.686;2023-11-19T07:33:58;10.50;99.90
54684;DHT22;40582;53.100;6.686;2023-11-19T07:36:24;10.50;99.90
54684;DHT22;40582;53.100;6.686;2023-11-19T07:38:50;10.50;99.90
54684;DHT22;40582;53.100;6.686;2023-11-19T07:41:16;10.50;99.90
54684;DHT22;40582;53.100;6.686;2023-11-19T07:43:45;10.50;99.90
54684;DHT22;40582;53.100;6.686;2023-11-19T07:46:13;10.50;99.90
54684;DHT22;40582;53.100;6.686;2023-11-19T07:48:39;10.50;99.90
54684;DHT22;40582;53.100;6.686;2023-11-19T07:51:05;10.50;99.90
54684;DHT22;40582;53.100;6.686;2023-11-19T07:53:31;10.50;99.90
54684;DHT22;40582;53.100;6.686;2023-11-19T07:55:58;10.40;99.90
54684;DHT22;40582;53.100;6.686;2023-11-19T07:58:25;10.40;99.90
54684;DHT22;40582;53.100;6.686;2023-11-19T08:00:51;10.40;99.90
54684;DHT22;40582;53.100;6.686;2023-11-19T08:03:17;10.50;99.90
54684;DHT22;40582;53.100;6.686;2023-11-19T08:05:44;10.50;99.90
54684;DHT22;40582;53.100;6.686;2023-11-19T08:08:11;10.60;99.90
54684;DHT22;40582;53.100;6.686;2023-11-19T08:10:37;10.70;99.90
54684;DHT22;40582;53.100;6.686;2023-11-19T08:13:03;10.80;99.90
54684;DHT22;40582;53.100;6.686;2023-11-19T08:15:29;10.70;99.90
54684;DHT22;40582;53.100;6.686;2023-11-19T08:17:54;10.80;99.90
54684;DHT22;40582;53.100;6.686;2023-11-19T08:20:20;10.80;99.90
54684;DHT22;40582;53.100;6.686;2023-11-19T08:22:46;10.80;99.90
54684;DHT22;40582;53.100;6.686;2023-11-19T08:25:11;10.80;99.90
54684;DHT22;40582;53.100;6.686;2023-11-19T08:27:37;10.90;99.90
54684;DHT22;40582;53.100;6.686;2023-11-19T08:30:04;11.00;99.90
54684;DHT22;40582;53.100;6.686;2023-11-19T08:32:31;11.00;99.90
54684;DHT22;40582;53.100;6.686;2023-11-19T08:34:57;11.00;99.90
54684;DHT22;40582;53.100;6.686;2023-11-19T08:37:23;11.10;99.90
54684;DHT22;40582;53.100;6.686;2023-11-19T08:39:49;11.10;99.90
54684;DHT22;40582;53.100;6.686;2023-11-19T08:42:16;11.10;99.90
54684;DHT22;40582;53.100;6.686;2023-11-19T08:44:42;11.20;99.90
54684;DHT22;40582;53.100;6.686;2023-11-19T08:47:11;11.20;99.90
54684;DHT22;40582;53.100;6.686;2023-11-19T08:49:38;11.20;99.90
54684;DHT22;40582;53.100;6.686;2023-11-19T08:52:05;11.10;99.90
54684;DHT22;40582;53.100;6.686;2023-11-19T08:54:32;11.00;99.90
54684;DHT22;40582;53.100;6.686;2023-11-19T08:56:58;11.00;99.90
54684;DHT22;40582;53.100;6.686;2023-11-19T08:59:25;10.90;99.90
54684;DHT22;40582;53.100;6.686;2023-11-19T09:01:50;10.90;99.90
54684;DHT22;40582;53.100;6.686;2023-11-19T09:04:16;10.90;99.90
54684;DHT22;40582;53.100;6.686;2023-11-19T09:06:42;10.80;99.90
54684;DHT22;40582;53.100;6.686;2023-11-19T09:09:08;10.80;99.90
54684;DHT22;40582;53.100;6.686;2023-11-19T09:11:35;10.80;99.90
54684;DHT22;40582;53.100;6.686;2023-11-19T09:14:00;10.70;99.90
54684;DHT22;40582;53.100;6.686;2023-11-19T09:16:26;10.80;99.90
54684;DHT22;40582;53.100;6.686;2023-11-19T09:18:52;10.80;99.90
54684;DHT22;40582;53.100;6.686;2023-11-19T09:21:18;10.40;99.90
54684;DHT22;40582;53.100;6.686;2023-11-19T09:23:43;10.70;99.90
54684;DHT22;40582;53.100;6.686;2023-11-19T09:26:10;10.70;99.90
54684;DHT22;40582;53.100;6.686;2023-11-19T09:28:36;10.70;99.90
54684;DHT22;40582;53.100;6.686;2023-11-19T09:31:02;10.80;99.90
54684;DHT22;40582;53.100;6.686;2023-11-19T09:33:30;10.90;99.90
54684;DHT22;40582;53.100;6.686;2023-11-19T09:35:56;11.00;99.90
54684;DHT22;40582;53.100;6.686;2023-11-19T09:38:22;11.20;99.90
54684;DHT22;40582;53.100;6.686;2023-11-19T09:40:48;11.40;99.90
54684;DHT22;40582;53.100;6.686;2023-11-19T09:43:15;11.50;99.90
54684;DHT22;40582;53.100;6.686;2023-11-19T09:45:50;11.40;99.90
54684;DHT22;40582;53.100;6.686;2023-11-19T09:48:17;11.40;99.90
54684;DHT22;40582;53.100;6.686;2023-11-19T09:50:47;11.40;99.90
54684;DHT22;40582;53.100;6.686;2023-11-19T09:53:14;11.40;99.90
54684;DHT22;40582;53.100;6.686;2023-11-19T09:55:41;11.40;99.90
54684;DHT22;40582;53.100;6.686;2023-11-19T09:58:07;11.40;99.90
54684;DHT22;40582;53.100;6.686;2023-11-19T10:00:34;11.40;99.90
54684;DHT22;40582;53.100;6.686;2023-11-19T10:03:00;11.50;99.90
54684;DHT22;40582;53.100;6.686;2023-11-19T10:05:26;11.60;99.90
54684;DHT22;40582;53.100;6.686;2023-11-19T10:07:52;11.60;99.90
54684;DHT22;40582;53.100;6.686;2023-11-19T10:10:18;11.60;99.90
54684;DHT22;40582;53.100;6.686;2023-11-19T10:12:50;11.70;99.90
54684;DHT22;40582;53.100;6.686;2023-11-19T10:15:24;11.70;99.90
54684;DHT22;40582;53.100;6.686;2023-11-19T10:17:50;11.80;99.90
54684;DHT22;40582;53.100;6.686;2023-11-19T10:20:17;11.80;99.90
54684;DHT22;40582;53.100;6.686;2023-11-19T10:22:43;11.90;99.90
54684;DHT22;40582;53.100;6.686;2023-11-19T10:25:25;11.90;99.90
54684;DHT22;40582;53.100;6.686;2023-11-19T10:27:52;11.90;99.90
54684;DHT22;40582;53.100;6.686;2023-11-19T10:30:24;11.90;99.90
54684;DHT22;40582;53.100;6.686;2023-11-19T10:33:07;11.90;99.90
54684;DHT22;40582;53.100;6.686;2023-11-19T10:35:58;11.80;99.90
54684;DHT22;40582;53.100;6.686;2023-11-19T10:38:24;11.80;99.90
54684;DHT22;40582;53.100;6.686;2023-11-19T10:40:51;11.80;99.90
54684;DHT22;40582;53.100;6.686;2023-11-19T10:43:17;11.80;99.90
54684;DHT22;40582;53.100;6.686;2023-11-19T10:45:43;11.70;99.90
54684;DHT22;40582;53.100;6.686;2023-11-19T10:48:09;11.70;99.90
54684;DHT22;40582;53.100;6.686;2023-11-19T10:50:37;11.60;99.90
54684;DHT22;40582;53.100;6.686;2023-11-19T10:53:04;11.60;99.90
54684;DHT22;40582;53.100;6.686;2023-11-19T10:55:32;11.70;99.90
54684;DHT22;40582;53.100;6.686;2023-11-19T10:58:03;11.70;99.90
54684;DHT22;40582;53.100;6.686;2023-11-19T11:00:46;11.70;99.90
54684;DHT22;40582;53.100;6.686;2023-11-19T11:03:25;11.70;99.90
54684;DHT22;40582;53.100;6.686;2023-11-19T11:05:52;11.60;99.90
54684;DHT22;40582;53.100;6.686;2023-11-19T11:08:19;11.50;99.90
54684;DHT22;40582;53.100;6.686;2023-11-19T11:10:54;11.40;99.90
54684;DHT22;40582;53.100;6.686;2023-11-19T11:13:22;11.40;99.90
54684;DHT22;40582;53.100;6.686;2023-11-19T11:15:52;11.50;99.90
54684;DHT22;40582;53.100;6.686;2023-11-19T11:18:20;11.60;99.90
54684;DHT22;40582;53.100;6.686;2023-11-19T11:20:46;11.80;99.90
54684;DHT22;40582;53.100;6.686;2023-11-19T11:28:59;12.10;99.90
54684;DHT22;40582;53.100;6.686;2023-11-19T11:36:42;12.30;99.90
54684;DHT22;40582;53.100;6.686;2023-11-19T11:39:11;12.30;99.90
54684;DHT22;40582;53.100;6.686;2023-11-19T11:41:38;12.30;99.90
54684;DHT22;40582;53.100;6.686;2023-11-19T11:44:04;12.30;99.90
54684;DHT22;40582;53.100;6.686;2023-11-19T11:57:15;11.90;99.90
54684;DHT22;40582;53.100;6.686;2023-11-19T11:59:45;12.00;99.90
54684;DHT22;40582;53.100;6.686;2023-11-19T12:02:14;11.90;99.90
54684;DHT22;40582;53.100;6.686;2023-11-19T12:04:40;11.90;99.90
54684;DHT22;40582;53.100;6.686;2023-11-19T12:07:13;12.20;99.90
54684;DHT22;40582;53.100;6.686;2023-11-19T12:09:42;11.90;99.90
54684;DHT22;40582;53.100;6.686;2023-11-19T12:12:22;11.90;99.90
54684;DHT22;40582;53.100;6.686;2023-11-19T12:15:07;11.90;99.90
54684;DHT22;40582;53.100;6.686;2023-11-19T12:17:48;12.00;99.90
54684;DHT22;40582;53.100;6.686;2023-11-19T12:20:19;12.10;99.90
54684;DHT22;40582;53.100;6.686;2023-11-19T12:22:46;12.20;99.90
54684;DHT22;40582;53.100;6.686;2023-11-19T12:25:13;12.10;99.90
54684;DHT22;40582;53.100;6.686;2023-11-19T12:27:52;12.00;99.90
54684;DHT22;40582;53.100;6.686;2023-11-19T12:30:25;11.90;99.90
54684;DHT22;40582;53.100;6.686;2023-11-19T12:32:51;11.80;99.90
54684;DHT22;40582;53.100;6.686;2023-11-19T12:35:20;11.80;99.90
54684;DHT22;40582;53.100;6.686;2023-11-19T12:37:47;11.70;99.90
54684;DHT22;40582;53.100;6.686;2023-11-19T12:40:15;11.80;99.90
54684;DHT22;40582;53.100;6.686;2023-11-19T12:42:41;11.80;99.90
54684;DHT22;40582;53.100;6.686;2023-11-19T12:45:07;11.80;99.90
54684;DHT22;40582;53.100;6.686;2023-11-19T12:47:43;11.80;99.90
54684;DHT22;40582;53.100;6.686;2023-11-19T12:50:10;11.90;99.90
54684;DHT22;40582;53.100;6.686;2023-11-19T12:52:36;11.90;99.90
54684;DHT22;40582;53.100;6.686;2023-11-19T12:55:04;11.90;99.90
54684;DHT22;40582;53.100;6.686;2023-11-19T12:57:40;11.90;99.90
54684;DHT22;40582;53.100;6.686;2023-11-19T13:00:06;11.90;99.90
54684;DHT22;40582;53.100;6.686;2023-11-19T13:02:48;11.90;99.90
54684;DHT22;40582;53.100;6.686;2023-11-19T13:05:43;12.00;99.90
54684;DHT22;40582;53.100;6.686;2023-11-19T13:08:09;12.00;99.90
54684;DHT22;40582;53.100;6.686;2023-11-19T13:10:52;12.00;99.90
54684;DHT22;40582;53.100;6.686;2023-11-19T13:13:19;12.10;99.90
54684;DHT22;40582;53.100;6.686;2023-11-19T13:15:45;12.20;99.90
54684;DHT22;40582;53.100;6.686;2023-11-19T13:18:12;12.20;99.90
54684;DHT22;40582;53.100;6.686;2023-11-19T13:20:38;12.20;99.90
54684;DHT22;40582;53.100;6.686;2023-11-19T13:23:06;12.20;99.90
54684;DHT22;40582;53.100;6.686;2023-11-19T13:25:32;12.20;99.90
54684;DHT22;40582;53.100;6.686;2023-11-19T13:27:58;12.20;99.90
54684;DHT22;40582;53.100;6.686;2023-11-19T13:30:25;12.10;99.90
54684;DHT22;40582;53.100;6.686;2023-11-19T13:32:51;12.10;99.90
54684;DHT22;40582;53.100;6.686;2023-11-19T13:35:18;12.00;99.90
54684;DHT22;40582;53.100;6.686;2023-11-19T13:37:44;12.00;99.90
54684;DHT22;40582;53.100;6.686;2023-11-19T13:40:11;11.90;99.90
54684;DHT22;40582;53.100;6.686;2023-11-19T13:42:40;11.90;99.90
54684;DHT22;40582;53.100;6.686;2023-11-19T13:45:15;11.80;99.90
54684;DHT22;40582;53.100;6.686;2023-11-19T13:47:44;11.80;99.90
54684;DHT22;40582;53.100;6.686;2023-11-19T13:50:13;11.80;99.90
54684;DHT22;40582;53.100;6.686;2023-11-19T13:52:41;11.90;99.90
54684;DHT22;40582;53.100;6.686;2023-11-19T13:55:08;11.80;99.90
54684;DHT22;40582;53.100;6.686;2023-11-19T13:57:41;11.80;99.90
54684;DHT22;40582;53.100;6.686;2023-11-19T14:00:09;11.80;99.90
54684;DHT22;40582;53.100;6.686;2023-11-19T14:02:46;11.80;99.90
54684;DHT22;40582;53.100;6.686;2023-11-19T14:05:14;11.80;99.90
54684;DHT22;40582;53.100;6.686;2023-11-19T14:07:42;11.80;99.90
54684;DHT22;40582;53.100;6.686;2023-11-19T14:10:08;11.80;99.90
54684;DHT22;40582;53.100;6.686;2023-11-19T14:12:37;11.80;99.90
54684;DHT22;40582;53.100;6.686;2023-11-19T14:15:04;11.80;99.90
54684;DHT22;40582;53.100;6.686;2023-11-19T14:17:32;11.80;99.90
54684;DHT22;40582;53.100;6.686;2023-11-19T14:19:58;11.80;99.90
54684;DHT22;40582;53.100;6.686;2023-11-19T14:22:24;11.70;99.90
54684;DHT22;40582;53.100;6.686;2023-11-19T14:24:50;11.70;99.90
54684;DHT22;40582;53.100;6.686;2023-11-19T14:27:16;11.70;99.90
54684;DHT22;40582;53.100;6.686;2023-11-19T14:29:43;11.60;99.90
54684;DHT22;40582;53.100;6.686;2023-11-19T14:32:10;11.60;99.90
54684;DHT22;40582;53.100;6.686;2023-11-19T14:34:36;11.60;99.90
54684;DHT22;40582;53.100;6.686;2023-11-19T14:37:02;11.60;99.90
54684;DHT22;40582;53.100;6.686;2023-11-19T14:39:28;11.50;99.90
54684;DHT22;40582;53.100;6.686;2023-11-19T14:41:57;11.50;99.90
54684;DHT22;40582;53.100;6.686;2023-11-19T14:44:27;11.50;99.90
54684;DHT22;40582;53.100;6.686;2023-11-19T14:46:52;11.50;99.90
54684;DHT22;40582;53.100;6.686;2023-11-19T14:49:18;11.40;99.90
54684;DHT22;40582;53.100;6.686;2023-11-19T14:51:44;11.40;99.90
54684;DHT22;40582;53.100;6.686;2023-11-19T14:54:09;11.40;99.90
54684;DHT22;40582;53.100;6.686;2023-11-19T14:56:35;11.40;99.90
54684;DHT22;40582;53.100;6.686;2023-11-19T14:59:01;11.40;99.90
54684;DHT22;40582;53.100;6.686;2023-11-19T15:01:27;11.40;99.90
54684;DHT22;40582;53.100;6.686;2023-11-19T15:03:54;11.40;99.90
54684;DHT22;40582;53.100;6.686;2023-11-19T15:06:23;11.30;99.90
54684;DHT22;40582;53.100;6.686;2023-11-19T15:08:49;11.30;99.90
54684;DHT22;40582;53.100;6.686;2023-11-19T15:11:15;11.30;99.90
54684;DHT22;40582;53.100;6.686;2023-11-19T15:13:40;11.30;99.90
54684;DHT22;40582;53.100;6.686;2023-11-19T15:16:07;11.30;99.90
54684;DHT22;40582;53.100;6.686;2023-11-19T15:18:37;11.30;99.90
54684;DHT22;40582;53.100;6.686;2023-11-19T15:21:03;11.30;99.90
54684;DHT22;40582;53.100;6.686;2023-11-19T15:23:29;11.30;99.90
54684;DHT22;40582;53.100;6.686;2023-11-19T15:25:55;11.30;99.90
54684;DHT22;40582;53.100;6.686;2023-11-19T15:28:21;11.30;99.90
54684;DHT22;40582;53.100;6.686;2023-11-19T15:30:47;11.30;99.90
54684;DHT22;40582;53.100;6.686;2023-11-19T15:33:13;11.30;99.90
54684;DHT22;40582;53.100;6.686;2023-11-19T15:35:38;11.30;99.90
54684;DHT22;40582;53.100;6.686;2023-11-19T15:38:06;11.20;99.90
54684;DHT22;40582;53.100;6.686;2023-11-19T15:40:35;11.20;99.90
54684;DHT22;40582;53.100;6.686;2023-11-19T15:43:03;11.20;99.90
54684;DHT22;40582;53.100;6.686;2023-11-19T15:45:29;11.20;99.90
54684;DHT22;40582;53.100;6.686;2023-11-19T15:47:54;11.20;99.90
54684;DHT22;40582;53.100;6.686;2023-11-19T15:50:20;11.20;99.90
54684;DHT22;40582;53.100;6.686;2023-11-19T15:52:46;11.20;99.90